createdAt,value
2017-08-21T00:02:08.568Z,99.90
2017-08-21T00:04:34.981Z,99.90
2017-08-21T00:07:01.355Z,99.90
2017-08-21T00:09:27.805Z,99.90
2017-08-21T00:11:54.227Z,99.90
2017-08-21T00:14:20.720Z,99.90
2017-08-21T00:16:47.107Z,99.90
2017-08-21T00:19:13.491Z,99.90
2017-08-21T00:21:39.874Z,99.90
2017-08-21T00:24:06.261Z,99.90
2017-08-21T00:26:33.480Z,99.90
2017-08-21T00:28:59.891Z,99.90
2017-08-21T00:31:26.303Z,99.90
2017-08-21T00:33:52.711Z,99.90
2017-08-21T00:36:19.118Z,99.90
2017-08-21T00:38:45.510Z,99.90
2017-08-21T00:41:11.984Z,99.90
2017-08-21T00:43:38.385Z,99.90
2017-08-21T00:46:04.807Z,99.90
2017-08-21T00:48:31.231Z,99.90
2017-08-21T00:50:57.623Z,99.90
2017-08-21T00:53:24.027Z,99.90
2017-08-21T00:55:50.475Z,99.90
2017-08-21T00:58:17.886Z,99.90
2017-08-21T01:00:44.264Z,99.90
2017-08-21T01:03:10.659Z,99.90
2017-08-21T01:05:37.064Z,99.90
2017-08-21T01:08:03.425Z,99.90
2017-08-21T01:10:29.839Z,99.90
2017-08-21T01:12:56.232Z,99.90
2017-08-21T01:15:22.609Z,99.90
2017-08-21T01:17:49.027Z,99.90
2017-08-21T01:20:15.452Z,99.90
2017-08-21T01:22:41.870Z,99.90
2017-08-21T01:25:09.329Z,99.90
2017-08-21T01:27:35.695Z,99.90
2017-08-21T01:30:02.119Z,99.90
2017-08-21T01:32:28.519Z,99.90
2017-08-21T01:34:54.903Z,99.90
2017-08-21T01:37:21.270Z,99.90
2017-08-21T01:39:47.755Z,99.90
2017-08-21T01:42:14.155Z,99.90
2017-08-21T01:44:40.555Z,99.90
2017-08-21T01:47:06.964Z,99.90
2017-08-21T01:49:33.351Z,99.90
2017-08-21T01:51:59.742Z,99.90
2017-08-21T01:54:26.155Z,99.90
2017-08-21T01:56:52.499Z,99.90
2017-08-21T01:59:18.915Z,99.90
2017-08-21T02:01:45.308Z,99.90
2017-08-21T02:04:12.436Z,99.90
2017-08-21T02:06:38.852Z,99.90
2017-08-21T02:09:05.259Z,99.90
2017-08-21T02:11:31.663Z,99.90
2017-08-21T02:13:58.067Z,99.90
2017-08-21T02:16:24.487Z,99.90
2017-08-21T02:18:50.883Z,99.90
2017-08-21T02:21:17.319Z,99.90
2017-08-21T02:23:43.703Z,99.90
2017-08-21T02:26:10.155Z,99.90
2017-08-21T02:28:36.571Z,99.90
2017-08-21T02:31:03.016Z,99.90
2017-08-21T02:33:29.400Z,99.90
2017-08-21T02:35:55.800Z,99.90
2017-08-21T02:38:34.494Z,99.90
2017-08-21T02:41:00.904Z,99.90
2017-08-21T02:43:27.309Z,99.90
2017-08-21T02:45:54.428Z,99.90
2017-08-21T02:48:21.621Z,99.90
2017-08-21T02:50:48.073Z,99.90
2017-08-21T02:53:14.469Z,99.90
2017-08-21T02:55:40.896Z,99.90
2017-08-21T02:58:07.308Z,99.90
2017-08-21T03:00:33.731Z,99.90
2017-08-21T03:03:00.120Z,99.90
2017-08-21T03:05:26.538Z,99.90
2017-08-21T03:07:53.948Z,99.90
2017-08-21T03:10:20.427Z,99.90
2017-08-21T03:12:46.831Z,99.90
2017-08-21T03:15:13.195Z,99.90
2017-08-21T03:17:40.339Z,99.90
2017-08-21T03:20:06.784Z,99.90
2017-08-21T03:22:33.247Z,99.90
2017-08-21T03:25:00.389Z,99.90
2017-08-21T03:27:26.809Z,99.90
2017-08-21T03:29:53.928Z,99.90
2017-08-21T03:32:21.336Z,99.90
2017-08-21T03:34:47.740Z,99.90
2017-08-21T03:37:14.094Z,99.90
2017-08-21T03:39:40.507Z,99.90
2017-08-21T03:42:07.655Z,99.90
2017-08-21T03:44:34.771Z,99.90
2017-08-21T03:47:01.207Z,99.90
2017-08-21T03:49:27.639Z,99.90
2017-08-21T03:51:54.878Z,99.90
2017-08-21T03:54:22.012Z,99.90
2017-08-21T03:56:48.429Z,99.90
2017-08-21T03:59:14.799Z,99.90
2017-08-21T04:01:41.272Z,99.90
2017-08-21T04:04:07.693Z,99.90
2017-08-21T04:06:34.056Z,99.90
2017-08-21T04:09:00.471Z,99.90
2017-08-21T04:11:26.892Z,99.90
2017-08-21T04:13:53.277Z,99.90
2017-08-21T04:16:19.711Z,99.90
2017-08-21T04:18:46.111Z,99.90
2017-08-21T04:21:12.483Z,99.90
2017-08-21T04:23:38.863Z,99.90
2017-08-21T04:26:05.258Z,99.90
2017-08-21T04:28:31.618Z,99.90
2017-08-21T04:30:58.028Z,99.90
2017-08-21T04:33:24.455Z,99.90
2017-08-21T04:35:50.903Z,99.90
2017-08-21T04:38:17.347Z,99.90
2017-08-21T04:40:43.743Z,99.90
2017-08-21T04:43:10.194Z,99.90
2017-08-21T04:45:36.611Z,99.90
2017-08-21T04:48:03.027Z,99.90
2017-08-21T04:50:29.428Z,99.90
2017-08-21T04:52:55.809Z,99.90
2017-08-21T04:55:22.178Z,99.90
2017-08-21T04:57:48.563Z,99.90
2017-08-21T05:00:14.959Z,99.90
2017-08-21T05:02:41.415Z,99.90
2017-08-21T05:05:07.828Z,99.90
2017-08-21T05:07:34.245Z,99.90
2017-08-21T05:10:00.634Z,99.90
2017-08-21T05:12:27.077Z,99.90
2017-08-21T05:14:53.469Z,99.90
2017-08-21T05:17:19.906Z,99.90
2017-08-21T05:19:46.344Z,99.90
2017-08-21T05:22:12.719Z,99.90
2017-08-21T05:24:39.099Z,99.90
2017-08-21T05:27:05.559Z,99.90
2017-08-21T05:29:31.948Z,99.90
2017-08-21T05:31:58.405Z,99.90
2017-08-21T05:34:24.795Z,99.90
2017-08-21T05:36:51.175Z,99.90
2017-08-21T05:39:17.577Z,99.90
2017-08-21T05:41:43.995Z,99.90
2017-08-21T05:44:10.355Z,99.90
2017-08-21T05:46:36.735Z,99.90
2017-08-21T05:49:03.080Z,99.90
2017-08-21T05:51:30.191Z,99.90
2017-08-21T05:53:56.595Z,99.90
2017-08-21T05:56:23.081Z,99.90
2017-08-21T05:58:49.483Z,99.90
2017-08-21T06:01:15.939Z,99.90
2017-08-21T06:03:42.304Z,99.90
2017-08-21T06:06:08.710Z,99.90
2017-08-21T06:08:35.143Z,99.90
2017-08-21T06:11:01.527Z,99.90
2017-08-21T06:13:27.923Z,99.90
2017-08-21T06:15:54.346Z,99.90
2017-08-21T06:18:20.759Z,99.90
2017-08-21T06:20:47.184Z,99.90
2017-08-21T06:23:13.600Z,99.90
2017-08-21T06:25:39.968Z,99.90
2017-08-21T06:28:06.351Z,99.90
2017-08-21T06:30:32.955Z,99.90
2017-08-21T06:32:59.309Z,99.90
2017-08-21T06:35:25.738Z,99.90
2017-08-21T06:37:52.234Z,99.90
2017-08-21T06:40:18.636Z,99.90
2017-08-21T06:42:45.014Z,99.90
2017-08-21T06:45:27.407Z,99.90
2017-08-21T06:47:53.819Z,99.90
2017-08-21T06:50:21.276Z,99.90
2017-08-21T06:52:47.683Z,99.90
2017-08-21T06:55:14.067Z,99.90
2017-08-21T06:57:40.532Z,99.90
2017-08-21T07:00:06.907Z,99.90
2017-08-21T07:02:33.275Z,99.90
2017-08-21T07:04:59.784Z,99.90
2017-08-21T07:07:26.215Z,99.90
2017-08-21T07:09:53.631Z,99.90
2017-08-21T07:12:20.035Z,99.90
2017-08-21T07:14:46.407Z,99.90
2017-08-21T07:17:12.767Z,99.90
2017-08-21T07:19:39.178Z,99.90
2017-08-21T07:22:05.535Z,99.90
2017-08-21T07:24:31.991Z,99.90
2017-08-21T07:26:58.399Z,99.90
2017-08-21T07:29:24.779Z,99.90
2017-08-21T07:31:51.204Z,99.90
2017-08-21T07:34:17.551Z,99.90
2017-08-21T07:36:44.651Z,99.90
2017-08-21T07:39:11.756Z,99.90
2017-08-21T07:41:38.164Z,99.90
2017-08-21T07:44:04.590Z,99.90
2017-08-21T07:46:30.996Z,99.90
2017-08-21T07:48:57.371Z,99.90
2017-08-21T07:51:23.783Z,99.90
2017-08-21T07:53:50.167Z,99.90
2017-08-21T07:56:16.558Z,99.90
2017-08-21T07:58:42.960Z,99.40
2017-08-21T08:01:09.346Z,97.70
2017-08-21T08:03:35.723Z,98.10
2017-08-21T08:06:02.144Z,99.90
2017-08-21T08:08:28.543Z,98.20
2017-08-21T08:10:54.926Z,99.40
2017-08-21T08:13:21.274Z,98.50
2017-08-21T08:15:47.707Z,98.00
2017-08-21T08:18:14.130Z,96.70
2017-08-21T08:20:40.515Z,98.30
2017-08-21T08:23:06.903Z,97.90
2017-08-21T08:25:33.275Z,96.90
2017-08-21T08:27:59.668Z,96.60
2017-08-21T08:30:26.039Z,95.80
2017-08-21T08:32:52.431Z,96.00
2017-08-21T08:35:18.792Z,93.20
2017-08-21T08:37:45.198Z,94.40
2017-08-21T08:40:11.571Z,93.70
2017-08-21T08:42:37.959Z,92.90
2017-08-21T08:45:04.349Z,90.50
2017-08-21T08:47:31.490Z,88.70
2017-08-21T08:49:57.871Z,88.50
2017-08-21T08:52:24.311Z,78.50
2017-08-21T08:54:50.700Z,70.10
2017-08-21T08:57:17.083Z,65.10
2017-08-21T08:59:43.479Z,58.00
2017-08-21T09:02:09.879Z,53.10
2017-08-21T09:04:36.233Z,48.80
2017-08-21T09:07:02.615Z,47.50
2017-08-21T09:09:28.985Z,43.60
2017-08-21T09:11:55.346Z,40.00
2017-08-21T09:14:22.800Z,36.80
2017-08-21T09:16:49.224Z,39.60
2017-08-21T09:19:15.654Z,35.00
2017-08-21T09:21:42.070Z,35.50
2017-08-21T09:24:08.436Z,35.00
2017-08-21T09:26:34.820Z,33.70
2017-08-21T09:29:01.195Z,34.90
2017-08-21T09:31:27.775Z,35.40
2017-08-21T09:33:54.175Z,36.50
2017-08-21T09:36:20.596Z,40.10
2017-08-21T09:38:46.992Z,40.00
2017-08-21T09:41:13.363Z,42.90
2017-08-21T09:43:39.780Z,46.20
2017-08-21T09:46:06.916Z,48.40
2017-08-21T09:48:34.065Z,47.40
2017-08-21T09:51:00.443Z,47.40
2017-08-21T09:53:26.879Z,52.70
2017-08-21T09:55:53.260Z,49.80
2017-08-21T09:58:34.578Z,49.00
2017-08-21T10:01:01.664Z,52.50
2017-08-21T10:03:28.056Z,52.40
2017-08-21T10:05:54.415Z,53.70
2017-08-21T10:08:20.811Z,54.40
2017-08-21T10:10:47.215Z,55.00
2017-08-21T10:13:13.607Z,55.10
2017-08-21T10:15:40.043Z,57.90
2017-08-21T10:18:06.489Z,58.40
2017-08-21T10:20:33.701Z,59.30
2017-08-21T10:23:00.129Z,57.40
2017-08-21T10:25:26.520Z,56.80
2017-08-21T10:27:52.888Z,59.20
2017-08-21T10:30:19.239Z,59.80
2017-08-21T10:32:45.679Z,58.00
2017-08-21T10:35:12.063Z,54.00
2017-08-21T10:37:39.184Z,60.60
2017-08-21T10:40:05.572Z,60.60
2017-08-21T10:42:31.972Z,58.10
2017-08-21T10:44:58.357Z,59.80
2017-08-21T10:47:24.712Z,60.20
2017-08-21T10:49:51.040Z,55.60
2017-08-21T10:52:18.167Z,57.40
2017-08-21T10:54:44.552Z,57.40
2017-08-21T10:57:10.968Z,54.10
2017-08-21T10:59:37.343Z,54.20
2017-08-21T11:02:03.812Z,61.50
2017-08-21T11:04:30.216Z,60.30
2017-08-21T11:06:56.596Z,59.30
2017-08-21T11:09:22.996Z,59.40
2017-08-21T11:11:49.384Z,58.80
2017-08-21T11:14:15.754Z,57.10
2017-08-21T11:16:42.203Z,59.70
2017-08-21T11:19:08.616Z,61.40
2017-08-21T11:21:34.988Z,55.70
2017-08-21T11:24:02.147Z,55.20
2017-08-21T11:26:28.479Z,55.20
2017-08-21T11:29:25.003Z,57.40
2017-08-21T11:31:51.315Z,58.10
2017-08-21T11:34:18.311Z,58.80
2017-08-21T11:36:44.586Z,58.70
2017-08-21T11:39:10.869Z,58.40
2017-08-21T11:41:37.152Z,53.00
2017-08-21T11:44:03.422Z,57.90
2017-08-21T11:46:29.774Z,58.60
2017-08-21T11:48:57.086Z,57.50
2017-08-21T11:51:23.394Z,59.00
2017-08-21T11:53:49.682Z,58.00
2017-08-21T11:56:15.959Z,57.30
2017-08-21T11:58:42.230Z,58.70
2017-08-21T12:01:08.570Z,59.30
2017-08-21T12:03:34.818Z,55.50
2017-08-21T12:06:01.098Z,58.30
2017-08-21T12:08:27.382Z,58.60
2017-08-21T12:10:53.688Z,58.50
2017-08-21T12:13:19.947Z,59.80
2017-08-21T12:15:46.425Z,64.50
2017-08-21T12:18:12.719Z,60.00
2017-08-21T12:20:39.011Z,58.30
2017-08-21T12:23:05.294Z,58.90
2017-08-21T12:25:31.582Z,57.30
2017-08-21T12:27:57.842Z,62.60
2017-08-21T12:30:24.139Z,57.80
2017-08-21T12:32:50.414Z,59.30
2017-08-21T12:35:16.678Z,58.70
2017-08-21T12:37:42.959Z,55.20
2017-08-21T12:40:09.246Z,52.60
2017-08-21T12:42:35.744Z,51.30
2017-08-21T12:45:02.050Z,53.50
2017-08-21T12:47:28.318Z,52.60
2017-08-21T12:49:54.607Z,53.40
2017-08-21T12:52:20.891Z,53.80
2017-08-21T12:54:47.166Z,58.10
2017-08-21T12:57:13.419Z,53.90
2017-08-21T12:59:39.722Z,57.10
2017-08-21T13:02:05.987Z,57.10
2017-08-21T13:04:32.286Z,58.30
2017-08-21T13:06:58.567Z,53.00
2017-08-21T13:09:24.867Z,53.50
2017-08-21T13:11:51.162Z,57.20
2017-08-21T13:14:17.570Z,54.20
2017-08-21T13:16:43.863Z,51.30
2017-08-21T13:19:10.166Z,53.10
2017-08-21T13:21:36.471Z,47.60
2017-08-21T13:24:02.738Z,39.70
2017-08-21T13:26:29.037Z,34.40
2017-08-21T13:28:55.355Z,32.20
2017-08-21T13:31:21.628Z,32.40
2017-08-21T13:33:47.924Z,33.60
2017-08-21T13:36:14.218Z,41.00
2017-08-21T13:38:40.550Z,39.90
2017-08-21T13:41:06.848Z,44.60
2017-08-21T13:43:33.182Z,42.40
2017-08-21T13:45:59.436Z,43.40
2017-08-21T13:48:25.726Z,46.30
2017-08-21T13:50:52.043Z,47.00
2017-08-21T13:53:18.334Z,47.30
2017-08-21T13:55:44.618Z,44.30
2017-08-21T13:58:10.946Z,42.50
2017-08-21T14:00:37.213Z,42.00
2017-08-21T14:03:03.482Z,43.00
2017-08-21T14:05:29.762Z,45.90
2017-08-21T14:07:56.056Z,44.30
2017-08-21T14:10:22.335Z,46.20
2017-08-21T14:12:48.627Z,46.60
2017-08-21T14:15:15.998Z,47.90
2017-08-21T14:17:42.278Z,51.90
2017-08-21T14:20:08.558Z,49.70
2017-08-21T14:22:34.842Z,51.60
2017-08-21T14:25:01.124Z,50.80
2017-08-21T14:27:27.454Z,54.40
2017-08-21T14:29:53.740Z,51.10
2017-08-21T14:32:20.028Z,54.50
2017-08-21T14:34:46.312Z,57.30
2017-08-21T14:37:13.626Z,55.00
2017-08-21T14:39:39.924Z,53.70
2017-08-21T14:42:06.231Z,53.30
2017-08-21T14:44:32.494Z,52.70
2017-08-21T14:46:58.794Z,53.90
2017-08-21T14:49:25.066Z,54.80
2017-08-21T14:51:51.363Z,54.10
2017-08-21T14:54:17.650Z,54.40
2017-08-21T14:56:43.935Z,56.50
2017-08-21T14:59:10.236Z,55.20
2017-08-21T15:01:36.522Z,55.30
2017-08-21T15:04:02.822Z,56.40
2017-08-21T15:06:29.138Z,55.00
2017-08-21T15:09:05.426Z,53.20
2017-08-21T15:11:31.715Z,53.10
2017-08-21T15:13:58.050Z,53.80
2017-08-21T15:16:24.306Z,49.30
2017-08-21T15:18:50.610Z,49.50
2017-08-21T15:21:16.863Z,46.50
2017-08-21T15:23:43.142Z,51.30
2017-08-21T15:26:09.442Z,48.20
2017-08-21T15:28:35.719Z,49.40
2017-08-21T15:31:02.004Z,53.90
2017-08-21T15:33:28.625Z,56.10
2017-08-21T15:35:55.067Z,56.30
2017-08-21T15:38:21.453Z,56.70
2017-08-21T15:40:47.811Z,56.60
2017-08-21T15:43:14.102Z,57.00
2017-08-21T15:45:40.366Z,59.00
2017-08-21T15:48:06.663Z,60.90
2017-08-21T15:50:32.923Z,56.10
2017-08-21T15:52:59.202Z,59.30
2017-08-21T15:55:25.483Z,59.70
2017-08-21T15:57:51.851Z,59.90
2017-08-21T16:00:18.122Z,59.20
2017-08-21T16:02:44.430Z,56.40
2017-08-21T16:05:10.703Z,54.60
2017-08-21T16:07:36.982Z,57.20
2017-08-21T16:10:03.278Z,55.00
2017-08-21T16:12:29.554Z,53.50
2017-08-21T16:14:55.814Z,53.50
2017-08-21T16:17:22.089Z,56.90
2017-08-21T16:19:48.343Z,57.40
2017-08-21T16:22:14.630Z,59.70
2017-08-21T16:24:40.910Z,56.30
2017-08-21T16:27:08.182Z,55.80
2017-08-21T16:29:34.446Z,56.20
2017-08-21T16:32:00.735Z,60.50
2017-08-21T16:34:27.026Z,58.10
2017-08-21T16:36:53.330Z,60.20
2017-08-21T16:39:19.610Z,61.90
2017-08-21T16:41:45.938Z,58.20
2017-08-21T16:44:12.194Z,57.60
2017-08-21T16:46:38.495Z,58.00
2017-08-21T16:49:04.734Z,57.90
2017-08-21T16:51:31.002Z,59.10
2017-08-21T16:53:57.266Z,61.00
2017-08-21T16:56:23.558Z,55.60
2017-08-21T16:58:49.830Z,60.20
2017-08-21T17:01:16.147Z,59.30
2017-08-21T17:03:42.427Z,62.20
2017-08-21T17:06:08.711Z,61.30
2017-08-21T17:08:34.986Z,61.60
2017-08-21T17:11:01.227Z,59.60
2017-08-21T17:13:27.497Z,62.10
2017-08-21T17:15:53.938Z,63.70
2017-08-21T17:18:21.330Z,64.70
2017-08-21T17:20:47.606Z,67.20
2017-08-21T17:23:14.192Z,65.80
2017-08-21T17:25:40.502Z,67.10
2017-08-21T17:28:06.786Z,66.60
2017-08-21T17:30:33.070Z,65.10
2017-08-21T17:32:59.396Z,68.90
2017-08-21T17:35:25.973Z,67.60
2017-08-21T17:37:52.305Z,68.40
2017-08-21T17:40:18.673Z,68.00
2017-08-21T17:42:45.274Z,68.50
2017-08-21T17:45:11.874Z,70.40
2017-08-21T17:47:38.410Z,71.20
2017-08-21T17:50:04.955Z,72.50
2017-08-21T17:52:32.029Z,71.40
2017-08-21T17:54:58.813Z,71.80
2017-08-21T17:57:25.506Z,73.30
2017-08-21T17:59:52.168Z,75.20
2017-08-21T18:02:18.590Z,76.10
2017-08-21T18:04:45.148Z,77.70
2017-08-21T18:07:11.639Z,78.60
2017-08-21T18:09:38.694Z,80.80
2017-08-21T18:12:05.787Z,80.50
2017-08-21T18:14:32.418Z,83.00
2017-08-21T18:16:59.268Z,81.90
2017-08-21T18:19:26.086Z,83.00
2017-08-21T18:21:52.991Z,84.00
2017-08-21T18:24:20.329Z,85.60
2017-08-21T18:26:48.198Z,86.90
2017-08-21T18:29:16.045Z,87.30
2017-08-21T18:31:43.874Z,88.00
2017-08-21T18:34:11.745Z,89.00
2017-08-21T18:36:39.608Z,90.00
2017-08-21T18:39:07.352Z,90.50
2017-08-21T18:41:35.354Z,91.20
2017-08-21T18:44:03.165Z,92.00
2017-08-21T18:46:30.906Z,92.50
2017-08-21T18:48:59.066Z,92.70
2017-08-21T18:51:26.877Z,93.00
2017-08-21T18:53:54.682Z,93.10
2017-08-21T18:56:22.468Z,93.10
2017-08-21T18:58:50.323Z,93.30
2017-08-21T19:01:19.256Z,93.80
2017-08-21T19:03:47.073Z,94.10
2017-08-21T19:06:14.965Z,94.70
2017-08-21T19:08:42.694Z,95.30
2017-08-21T19:11:10.537Z,95.60
2017-08-21T19:13:38.434Z,95.80
2017-08-21T19:16:06.206Z,96.30
2017-08-21T19:18:34.067Z,96.70
2017-08-21T19:21:01.958Z,97.20
2017-08-21T19:23:29.735Z,97.60
2017-08-21T19:25:57.620Z,98.10
2017-08-21T19:28:25.592Z,98.50
2017-08-21T19:30:53.357Z,98.70
2017-08-21T19:33:21.291Z,98.90
2017-08-21T19:35:49.168Z,99.20
2017-08-21T19:38:16.962Z,99.90
2017-08-21T19:40:44.845Z,99.80
2017-08-21T19:43:12.732Z,99.90
2017-08-21T19:45:40.501Z,99.90
2017-08-21T19:48:08.382Z,99.90
2017-08-21T19:50:36.258Z,99.90
2017-08-21T19:53:04.020Z,99.90
2017-08-21T19:55:31.941Z,99.90
2017-08-21T19:57:59.845Z,99.90
2017-08-21T20:00:27.626Z,99.90
2017-08-21T20:02:55.493Z,99.90
2017-08-21T20:05:23.359Z,99.90
2017-08-21T20:07:51.124Z,99.90
2017-08-21T20:10:18.962Z,99.90
2017-08-21T20:12:47.776Z,99.90
2017-08-21T20:15:15.525Z,99.90
2017-08-21T20:17:43.437Z,99.90
2017-08-21T20:20:11.333Z,99.90
2017-08-21T20:22:39.107Z,99.90
2017-08-21T20:25:07.116Z,99.90
2017-08-21T20:27:34.940Z,99.90
2017-08-21T20:30:02.649Z,99.90
2017-08-21T20:32:30.510Z,99.90
2017-08-21T20:34:58.416Z,99.90
2017-08-21T20:37:26.053Z,99.90
2017-08-21T20:39:53.940Z,99.90
2017-08-21T20:42:21.666Z,99.90
2017-08-21T20:44:49.421Z,99.90
2017-08-21T20:47:17.178Z,99.90
2017-08-21T20:49:45.767Z,99.90
2017-08-21T20:52:13.360Z,99.90
2017-08-21T20:57:16.966Z,99.90
2017-08-21T20:59:43.862Z,99.90
2017-08-21T21:02:10.510Z,99.90
2017-08-21T21:04:36.880Z,99.90
2017-08-21T21:07:03.239Z,99.90
2017-08-21T21:09:29.511Z,99.90
2017-08-21T21:11:55.799Z,99.90
2017-08-21T21:14:22.102Z,99.90
2017-08-21T21:16:48.392Z,99.90
2017-08-21T21:19:14.711Z,99.90
2017-08-21T21:21:41.014Z,99.90
2017-08-21T21:24:07.310Z,99.90
2017-08-21T21:26:33.578Z,99.90
2017-08-21T21:28:59.865Z,99.90
2017-08-21T21:31:26.158Z,99.90
2017-08-21T21:33:52.418Z,99.90
2017-08-21T21:36:18.722Z,99.90
2017-08-21T21:38:45.003Z,99.90
2017-08-21T21:41:11.306Z,99.90
2017-08-21T21:43:37.679Z,99.90
2017-08-21T21:46:03.975Z,99.90
2017-08-21T21:48:30.274Z,99.90
2017-08-21T21:50:56.546Z,99.90
2017-08-21T21:53:22.978Z,99.90
2017-08-21T21:55:49.280Z,99.90
2017-08-21T21:58:15.567Z,99.90
2017-08-21T22:00:41.849Z,99.90
2017-08-21T22:03:08.111Z,99.90
2017-08-21T22:05:34.423Z,99.90
2017-08-21T22:08:00.719Z,99.90
2017-08-21T22:10:26.983Z,99.90
2017-08-21T22:12:53.310Z,99.90
2017-08-21T22:15:20.582Z,99.90
2017-08-21T22:17:46.898Z,99.90
2017-08-21T22:20:13.200Z,99.90
2017-08-21T22:22:39.500Z,99.90
2017-08-21T22:25:05.763Z,99.90
2017-08-21T22:27:32.052Z,99.90
2017-08-21T22:29:58.341Z,99.90
2017-08-21T22:32:24.606Z,99.90
2017-08-21T22:34:50.913Z,99.90
2017-08-21T22:37:17.180Z,99.90
2017-08-21T22:39:43.464Z,99.90
2017-08-21T22:42:09.745Z,99.90
2017-08-21T22:44:36.006Z,99.90
2017-08-21T22:47:02.263Z,99.90
2017-08-21T22:49:28.591Z,99.90
2017-08-21T22:51:54.862Z,99.90
2017-08-21T22:54:21.251Z,99.90
2017-08-21T22:56:47.526Z,99.90
2017-08-21T22:59:13.798Z,99.90
2017-08-21T23:01:40.087Z,99.90
2017-08-21T23:04:06.387Z,99.90
2017-08-21T23:06:32.691Z,99.90
2017-08-21T23:08:58.954Z,99.90
2017-08-21T23:11:25.276Z,99.90
2017-08-21T23:13:51.550Z,99.90
2017-08-21T23:16:17.814Z,99.90
2017-08-21T23:18:44.122Z,99.90
2017-08-21T23:21:10.414Z,99.90
2017-08-21T23:23:36.715Z,99.90
2017-08-21T23:26:02.999Z,99.90
2017-08-21T23:28:29.282Z,99.90
2017-08-21T23:30:55.546Z,99.90
2017-08-21T23:33:21.847Z,99.90
2017-08-21T23:35:48.106Z,99.90
2017-08-21T23:38:14.383Z,99.90
2017-08-21T23:40:40.685Z,99.90
2017-08-21T23:43:06.979Z,99.90
2017-08-21T23:45:33.238Z,99.90
2017-08-21T23:48:00.538Z,99.90
2017-08-21T23:50:26.866Z,99.90
2017-08-21T23:52:53.142Z,99.90
2017-08-21T23:55:19.425Z,99.90
2017-08-21T23:57:45.730Z,99.90
